sensor_id;sensor_type;location;lat;lon;timestamp;temperature;humidity
9057;DHT22;4563;54.756;9.400;2024-01-30T00:02:20;9.20;84.10
9057;DHT22;4563;54.756;9.400;2024-01-30T00:04:47;9.20;84.20
9057;DHT22;4563;54.756;9.400;2024-01-30T00:07:14;9.30;84.30
9057;DHT22;4563;54.756;9.400;2024-01-30T00:09:41;9.30;84.30
9057;DHT22;4563;54.756;9.400;2024-01-30T00:12:08;9.30;84.30
9057;DHT22;4563;54.756;9.400;2024-01-30T00:14:36;9.30;84.30
9057;DHT22;4563;54.756;9.400;2024-01-30T00:17:03;9.30;84.30
9057;DHT22;4563;54.756;9.400;2024-01-30T00:19:29;9.30;84.40
9057;DHT22;4563;54.756;9.400;2024-01-30T00:21:56;9.30;84.40
9057;DHT22;4563;54.756;9.400;2024-01-30T00:24:23;9.30;84.40
9057;DHT22;4563;54.756;9.400;2024-01-30T00:26:50;9.30;84.40
9057;DHT22;4563;54.756;9.400;2024-01-30T00:29:17;9.30;84.40
9057;DHT22;4563;54.756;9.400;2024-01-30T00:31:47;9.30;84.50
9057;DHT22;4563;54.756;9.400;2024-01-30T00:34:13;9.30;84.50
9057;DHT22;4563;54.756;9.400;2024-01-30T00:36:40;9.30;84.50
9057;DHT22;4563;54.756;9.400;2024-01-30T00:39:07;9.30;84.50
9057;DHT22;4563;54.756;9.400;2024-01-30T00:41:35;9.30;84.50
9057;DHT22;4563;54.756;9.400;2024-01-30T00:44:02;9.30;84.50
9057;DHT22;4563;54.756;9.400;2024-01-30T00:46:28;9.30;84.60
9057;DHT22;4563;54.756;9.400;2024-01-30T00:48:57;9.30;84.60
9057;DHT22;4563;54.756;9.400;2024-01-30T00:51:24;9.30;84.60
9057;DHT22;4563;54.756;9.400;2024-01-30T00:53:50;9.30;84.60
9057;DHT22;4563;54.756;9.400;2024-01-30T00:56:19;9.30;84.60
9057;DHT22;4563;54.756;9.400;2024-01-30T00:58:46;9.30;84.60
9057;DHT22;4563;54.756;9.400;2024-01-30T01:01:13;9.30;84.60
9057;DHT22;4563;54.756;9.400;2024-01-30T01:03:40;9.30;84.60
9057;DHT22;4563;54.756;9.400;2024-01-30T01:06:10;9.30;84.60
9057;DHT22;4563;54.756;9.400;2024-01-30T01:08:37;9.30;84.60
9057;DHT22;4563;54.756;9.400;2024-01-30T01:11:04;9.30;84.60
9057;DHT22;4563;54.756;9.400;2024-01-30T01:13:30;9.30;84.60
9057;DHT22;4563;54.756;9.400;2024-01-30T01:15:57;9.30;84.60
9057;DHT22;4563;54.756;9.400;2024-01-30T01:18:24;9.30;84.60
9057;DHT22;4563;54.756;9.400;2024-01-30T01:20:51;9.30;84.60
9057;DHT22;4563;54.756;9.400;2024-01-30T01:23:19;9.30;84.60
9057;DHT22;4563;54.756;9.400;2024-01-30T01:25:46;9.40;84.70
9057;DHT22;4563;54.756;9.400;2024-01-30T01:28:12;9.40;84.70
9057;DHT22;4563;54.756;9.400;2024-01-30T01:30:39;9.40;84.70
9057;DHT22;4563;54.756;9.400;2024-01-30T01:33:06;9.40;84.70
9057;DHT22;4563;54.756;9.400;2024-01-30T01:35:32;9.40;84.70
9057;DHT22;4563;54.756;9.400;2024-01-30T01:37:59;9.40;84.80
9057;DHT22;4563;54.756;9.400;2024-01-30T01:40:27;9.40;84.80
9057;DHT22;4563;54.756;9.400;2024-01-30T01:42:56;9.40;84.70
9057;DHT22;4563;54.756;9.400;2024-01-30T01:45:23;9.40;84.70
9057;DHT22;4563;54.756;9.400;2024-01-30T01:47:51;9.40;84.70
9057;DHT22;4563;54.756;9.400;2024-01-30T01:50:18;9.40;84.70
9057;DHT22;4563;54.756;9.400;2024-01-30T01:52:47;9.40;84.70
9057;DHT22;4563;54.756;9.400;2024-01-30T01:55:15;9.40;84.70
9057;DHT22;4563;54.756;9.400;2024-01-30T01:57:44;9.40;84.70
9057;DHT22;4563;54.756;9.400;2024-01-30T02:00:12;9.50;84.90
9057;DHT22;4563;54.756;9.400;2024-01-30T02:02:40;9.40;84.70
9057;DHT22;4563;54.756;9.400;2024-01-30T02:05:08;9.50;84.80
9057;DHT22;4563;54.756;9.400;2024-01-30T02:07:35;9.50;84.80
9057;DHT22;4563;54.756;9.400;2024-01-30T02:10:02;9.50;84.80
9057;DHT22;4563;54.756;9.400;2024-01-30T02:12:29;9.50;84.80
9057;DHT22;4563;54.756;9.400;2024-01-30T02:14:57;9.50;84.80
9057;DHT22;4563;54.756;9.400;2024-01-30T02:17:24;9.50;84.80
9057;DHT22;4563;54.756;9.400;2024-01-30T02:19:52;9.50;84.80
9057;DHT22;4563;54.756;9.400;2024-01-30T02:22:20;9.50;84.90
9057;DHT22;4563;54.756;9.400;2024-01-30T02:24:48;9.50;84.80
9057;DHT22;4563;54.756;9.400;2024-01-30T02:27:14;9.50;84.80
9057;DHT22;4563;54.756;9.400;2024-01-30T02:29:41;9.50;84.80
9057;DHT22;4563;54.756;9.400;2024-01-30T02:32:08;9.50;84.80
9057;DHT22;4563;54.756;9.400;2024-01-30T02:34:35;9.50;84.80
9057;DHT22;4563;54.756;9.400;2024-01-30T02:37:01;9.50;84.90
9057;DHT22;4563;54.756;9.400;2024-01-30T02:39:30;9.60;84.90
9057;DHT22;4563;54.756;9.400;2024-01-30T02:41:56;9.60;84.90
9057;DHT22;4563;54.756;9.400;2024-01-30T02:44:23;9.60;84.90
9057;DHT22;4563;54.756;9.400;2024-01-30T02:46:50;9.60;84.90
9057;DHT22;4563;54.756;9.400;2024-01-30T02:49:17;9.60;85.00
9057;DHT22;4563;54.756;9.400;2024-01-30T02:51:43;9.60;84.90
9057;DHT22;4563;54.756;9.400;2024-01-30T02:54:10;9.60;84.90
9057;DHT22;4563;54.756;9.400;2024-01-30T02:56:39;9.60;84.90
9057;DHT22;4563;54.756;9.400;2024-01-30T02:59:06;9.60;84.90
9057;DHT22;4563;54.756;9.400;2024-01-30T03:01:33;9.60;84.90
9057;DHT22;4563;54.756;9.400;2024-01-30T03:03:59;9.60;84.90
9057;DHT22;4563;54.756;9.400;2024-01-30T03:06:26;9.60;84.90
9057;DHT22;4563;54.756;9.400;2024-01-30T03:08:53;9.60;84.90
9057;DHT22;4563;54.756;9.400;2024-01-30T03:11:20;9.60;85.00
9057;DHT22;4563;54.756;9.400;2024-01-30T03:13:48;9.60;84.90
9057;DHT22;4563;54.756;9.400;2024-01-30T03:16:14;9.60;84.90
9057;DHT22;4563;54.756;9.400;2024-01-30T03:18:41;9.60;85.00
9057;DHT22;4563;54.756;9.400;2024-01-30T03:21:08;9.60;85.00
9057;DHT22;4563;54.756;9.400;2024-01-30T03:23:35;9.60;84.90
9057;DHT22;4563;54.756;9.400;2024-01-30T03:26:02;9.60;84.90
9057;DHT22;4563;54.756;9.400;2024-01-30T03:28:32;9.60;85.70
9057;DHT22;4563;54.756;9.400;2024-01-30T03:31:00;9.60;85.00
9057;DHT22;4563;54.756;9.400;2024-01-30T03:33:27;9.60;85.00
9057;DHT22;4563;54.756;9.400;2024-01-30T03:35:54;9.70;85.00
9057;DHT22;4563;54.756;9.400;2024-01-30T03:38:21;9.60;84.90
9057;DHT22;4563;54.756;9.400;2024-01-30T03:40:47;9.60;84.90
9057;DHT22;4563;54.756;9.400;2024-01-30T03:43:14;9.60;84.90
9057;DHT22;4563;54.756;9.400;2024-01-30T03:45:41;9.60;84.90
9057;DHT22;4563;54.756;9.400;2024-01-30T03:48:09;9.60;84.90
9057;DHT22;4563;54.756;9.400;2024-01-30T03:50:36;9.60;84.90
9057;DHT22;4563;54.756;9.400;2024-01-30T03:53:03;9.60;84.90
9057;DHT22;4563;54.756;9.400;2024-01-30T03:55:30;9.60;84.90
9057;DHT22;4563;54.756;9.400;2024-01-30T03:57:57;9.60;84.90
9057;DHT22;4563;54.756;9.400;2024-01-30T04:00:24;9.60;84.90
9057;DHT22;4563;54.756;9.400;2024-01-30T04:02:51;9.60;84.90
9057;DHT22;4563;54.756;9.400;2024-01-30T04:05:19;9.60;84.90
9057;DHT22;4563;54.756;9.400;2024-01-30T04:07:46;9.60;84.90
9057;DHT22;4563;54.756;9.400;2024-01-30T04:10:12;9.60;84.90
9057;DHT22;4563;54.756;9.400;2024-01-30T04:12:40;9.60;84.90
9057;DHT22;4563;54.756;9.400;2024-01-30T04:15:08;9.60;84.90
9057;DHT22;4563;54.756;9.400;2024-01-30T04:17:34;9.60;85.00
9057;DHT22;4563;54.756;9.400;2024-01-30T04:20:01;9.50;84.90
9057;DHT22;4563;54.756;9.400;2024-01-30T04:22:30;9.50;84.90
9057;DHT22;4563;54.756;9.400;2024-01-30T04:24:57;9.50;84.80
9057;DHT22;4563;54.756;9.400;2024-01-30T04:27:23;9.50;84.80
9057;DHT22;4563;54.756;9.400;2024-01-30T04:29:50;9.50;84.90
9057;DHT22;4563;54.756;9.400;2024-01-30T04:32:17;9.40;84.80
9057;DHT22;4563;54.756;9.400;2024-01-30T04:34:43;9.40;84.80
9057;DHT22;4563;54.756;9.400;2024-01-30T04:37:10;9.40;84.80
9057;DHT22;4563;54.756;9.400;2024-01-30T04:39:39;9.40;84.80
9057;DHT22;4563;54.756;9.400;2024-01-30T04:42:06;9.40;84.80
9057;DHT22;4563;54.756;9.400;2024-01-30T04:44:33;9.40;84.80
9057;DHT22;4563;54.756;9.400;2024-01-30T04:47:00;9.40;84.90
9057;DHT22;4563;54.756;9.400;2024-01-30T04:49:27;9.40;84.80
9057;DHT22;4563;54.756;9.400;2024-01-30T04:51:54;9.40;84.80
9057;DHT22;4563;54.756;9.400;2024-01-30T04:54:21;9.30;84.70
9057;DHT22;4563;54.756;9.400;2024-01-30T04:56:49;9.30;84.70
9057;DHT22;4563;54.756;9.400;2024-01-30T04:59:16;9.30;84.70
9057;DHT22;4563;54.756;9.400;2024-01-30T05:01:43;9.30;84.60
9057;DHT22;4563;54.756;9.400;2024-01-30T05:04:10;9.30;84.70
9057;DHT22;4563;54.756;9.400;2024-01-30T05:06:37;9.30;84.70
9057;DHT22;4563;54.756;9.400;2024-01-30T05:09:04;9.20;84.60
9057;DHT22;4563;54.756;9.400;2024-01-30T05:11:31;9.20;84.50
9057;DHT22;4563;54.756;9.400;2024-01-30T05:13:59;9.20;84.60
9057;DHT22;4563;54.756;9.400;2024-01-30T05:16:26;9.20;84.50
9057;DHT22;4563;54.756;9.400;2024-01-30T05:18:53;9.20;84.50
9057;DHT22;4563;54.756;9.400;2024-01-30T05:21:19;9.20;84.50
9057;DHT22;4563;54.756;9.400;2024-01-30T05:23:46;9.20;84.50
9057;DHT22;4563;54.756;9.400;2024-01-30T05:26:12;9.10;84.40
9057;DHT22;4563;54.756;9.400;2024-01-30T05:28:39;9.10;84.40
9057;DHT22;4563;54.756;9.400;2024-01-30T05:31:07;9.10;84.50
9057;DHT22;4563;54.756;9.400;2024-01-30T05:33:34;9.10;84.40
9057;DHT22;4563;54.756;9.400;2024-01-30T05:36:01;9.00;84.30
9057;DHT22;4563;54.756;9.400;2024-01-30T05:38:31;9.00;84.30
9057;DHT22;4563;54.756;9.400;2024-01-30T05:40:58;9.00;84.30
9057;DHT22;4563;54.756;9.400;2024-01-30T05:43:25;9.00;84.30
9057;DHT22;4563;54.756;9.400;2024-01-30T05:45:52;9.00;84.30
9057;DHT22;4563;54.756;9.400;2024-01-30T05:48:20;8.90;84.20
9057;DHT22;4563;54.756;9.400;2024-01-30T05:50:47;8.90;84.20
9057;DHT22;4563;54.756;9.400;2024-01-30T05:53:13;8.90;84.40
9057;DHT22;4563;54.756;9.400;2024-01-30T05:55:40;8.90;84.20
9057;DHT22;4563;54.756;9.400;2024-01-30T05:58:07;8.80;84.10
9057;DHT22;4563;54.756;9.400;2024-01-30T06:00:34;8.80;84.10
9057;DHT22;4563;54.756;9.400;2024-01-30T06:03:01;8.80;84.10
9057;DHT22;4563;54.756;9.400;2024-01-30T06:05:29;8.80;84.10
9057;DHT22;4563;54.756;9.400;2024-01-30T06:07:56;8.80;84.10
9057;DHT22;4563;54.756;9.400;2024-01-30T06:10:22;8.70;84.00
9057;DHT22;4563;54.756;9.400;2024-01-30T06:12:49;8.70;84.00
9057;DHT22;4563;54.756;9.400;2024-01-30T06:15:16;8.70;84.10
9057;DHT22;4563;54.756;9.400;2024-01-30T06:17:43;8.70;84.00
9057;DHT22;4563;54.756;9.400;2024-01-30T06:20:10;8.70;84.00
9057;DHT22;4563;54.756;9.400;2024-01-30T06:22:38;8.70;84.00
9057;DHT22;4563;54.756;9.400;2024-01-30T06:25:05;8.60;83.90
9057;DHT22;4563;54.756;9.400;2024-01-30T06:27:32;8.60;83.90
9057;DHT22;4563;54.756;9.400;2024-01-30T06:29:58;8.60;83.90
9057;DHT22;4563;54.756;9.400;2024-01-30T06:32:25;8.50;83.80
9057;DHT22;4563;54.756;9.400;2024-01-30T06:34:52;8.50;83.80
9057;DHT22;4563;54.756;9.400;2024-01-30T06:37:19;8.50;83.90
9057;DHT22;4563;54.756;9.400;2024-01-30T06:39:48;8.50;83.90
9057;DHT22;4563;54.756;9.400;2024-01-30T06:42:14;8.50;83.90
9057;DHT22;4563;54.756;9.400;2024-01-30T06:44:41;8.50;83.90
9057;DHT22;4563;54.756;9.400;2024-01-30T06:47:08;8.40;83.80
9057;DHT22;4563;54.756;9.400;2024-01-30T06:49:35;8.40;83.90
9057;DHT22;4563;54.756;9.400;2024-01-30T06:52:04;8.40;83.80
9057;DHT22;4563;54.756;9.400;2024-01-30T06:54:31;8.40;83.90
9057;DHT22;4563;54.756;9.400;2024-01-30T06:56:59;8.40;83.90
9057;DHT22;4563;54.756;9.400;2024-01-30T06:59:26;8.40;83.80
9057;DHT22;4563;54.756;9.400;2024-01-30T07:01:53;8.30;83.80
9057;DHT22;4563;54.756;9.400;2024-01-30T07:04:20;8.30;83.80
9057;DHT22;4563;54.756;9.400;2024-01-30T07:06:46;8.30;83.80
9057;DHT22;4563;54.756;9.400;2024-01-30T07:09:13;8.30;83.80
9057;DHT22;4563;54.756;9.400;2024-01-30T07:11:40;8.30;83.70
9057;DHT22;4563;54.756;9.400;2024-01-30T07:14:09;8.30;83.80
9057;DHT22;4563;54.756;9.400;2024-01-30T07:16:35;8.30;83.80
9057;DHT22;4563;54.756;9.400;2024-01-30T07:19:02;8.20;83.60
9057;DHT22;4563;54.756;9.400;2024-01-30T07:21:29;8.20;83.60
9057;DHT22;4563;54.756;9.400;2024-01-30T07:23:56;8.30;83.70
9057;DHT22;4563;54.756;9.400;2024-01-30T07:26:23;8.20;84.30
9057;DHT22;4563;54.756;9.400;2024-01-30T07:28:50;8.20;83.60
9057;DHT22;4563;54.756;9.400;2024-01-30T07:31:18;8.20;83.60
9057;DHT22;4563;54.756;9.400;2024-01-30T07:33:48;8.20;83.60
9057;DHT22;4563;54.756;9.400;2024-01-30T07:36:15;8.20;83.60
9057;DHT22;4563;54.756;9.400;2024-01-30T07:38:42;8.20;83.60
9057;DHT22;4563;54.756;9.400;2024-01-30T07:41:08;8.20;83.60
9057;DHT22;4563;54.756;9.400;2024-01-30T07:43:35;8.20;83.60
9057;DHT22;4563;54.756;9.400;2024-01-30T07:46:02;8.20;83.60
9057;DHT22;4563;54.756;9.400;2024-01-30T07:48:30;8.20;83.60
9057;DHT22;4563;54.756;9.400;2024-01-30T07:50:59;8.20;83.60
9057;DHT22;4563;54.756;9.400;2024-01-30T07:53:26;8.20;83.60
9057;DHT22;4563;54.756;9.400;2024-01-30T07:55:53;8.20;83.60
9057;DHT22;4563;54.756;9.400;2024-01-30T07:58:19;8.20;83.70
9057;DHT22;4563;54.756;9.400;2024-01-30T08:00:46;8.10;83.60
9057;DHT22;4563;54.756;9.400;2024-01-30T08:03:13;8.20;83.70
9057;DHT22;4563;54.756;9.400;2024-01-30T08:05:43;8.20;83.70
9057;DHT22;4563;54.756;9.400;2024-01-30T08:08:10;8.20;83.70
9057;DHT22;4563;54.756;9.400;2024-01-30T08:10:37;8.20;83.70
9057;DHT22;4563;54.756;9.400;2024-01-30T08:13:04;8.20;83.80
9057;DHT22;4563;54.756;9.400;2024-01-30T08:15:30;8.20;83.70
9057;DHT22;4563;54.756;9.400;2024-01-30T08:17:57;8.20;83.70
9057;DHT22;4563;54.756;9.400;2024-01-30T08:20:24;8.20;83.80
9057;DHT22;4563;54.756;9.400;2024-01-30T08:22:53;8.20;83.80
9057;DHT22;4563;54.756;9.400;2024-01-30T08:25:19;8.20;83.80
9057;DHT22;4563;54.756;9.400;2024-01-30T08:27:47;8.20;83.80
9057;DHT22;4563;54.756;9.400;2024-01-30T08:30:15;8.20;83.90
9057;DHT22;4563;54.756;9.400;2024-01-30T08:32:42;8.20;83.90
9057;DHT22;4563;54.756;9.400;2024-01-30T08:35:09;8.20;83.80
9057;DHT22;4563;54.756;9.400;2024-01-30T08:37:39;8.20;83.80
9057;DHT22;4563;54.756;9.400;2024-01-30T08:40:08;8.20;83.90
9057;DHT22;4563;54.756;9.400;2024-01-30T08:42:34;8.20;84.00
9057;DHT22;4563;54.756;9.400;2024-01-30T08:45:01;8.20;84.00
9057;DHT22;4563;54.756;9.400;2024-01-30T08:47:30;8.20;84.00
9057;DHT22;4563;54.756;9.400;2024-01-30T08:49:58;8.20;84.00
9057;DHT22;4563;54.756;9.400;2024-01-30T08:52:25;8.20;84.00
9057;DHT22;4563;54.756;9.400;2024-01-30T08:54:52;8.30;84.10
9057;DHT22;4563;54.756;9.400;2024-01-30T08:57:21;8.30;84.10
9057;DHT22;4563;54.756;9.400;2024-01-30T08:59:48;8.30;84.10
9057;DHT22;4563;54.756;9.400;2024-01-30T09:02:15;8.30;84.10
9057;DHT22;4563;54.756;9.400;2024-01-30T09:04:43;8.30;84.10
9057;DHT22;4563;54.756;9.400;2024-01-30T09:07:10;8.30;84.10
9057;DHT22;4563;54.756;9.400;2024-01-30T09:09:38;8.30;84.10
9057;DHT22;4563;54.756;9.400;2024-01-30T09:12:07;8.30;84.10
9057;DHT22;4563;54.756;9.400;2024-01-30T09:14:36;8.30;84.10
9057;DHT22;4563;54.756;9.400;2024-01-30T09:17:03;8.40;84.20
9057;DHT22;4563;54.756;9.400;2024-01-30T09:19:30;8.40;84.20
9057;DHT22;4563;54.756;9.400;2024-01-30T09:21:57;8.40;84.20
9057;DHT22;4563;54.756;9.400;2024-01-30T09:24:24;8.40;84.20
9057;DHT22;4563;54.756;9.400;2024-01-30T09:26:51;8.40;84.20
9057;DHT22;4563;54.756;9.400;2024-01-30T09:29:18;8.40;84.20
9057;DHT22;4563;54.756;9.400;2024-01-30T09:31:46;8.40;84.20
9057;DHT22;4563;54.756;9.400;2024-01-30T09:34:13;8.40;84.20
9057;DHT22;4563;54.756;9.400;2024-01-30T09:36:40;8.50;84.40
9057;DHT22;4563;54.756;9.400;2024-01-30T09:39:07;8.50;84.30
9057;DHT22;4563;54.756;9.400;2024-01-30T09:41:43;8.60;84.30
9057;DHT22;4563;54.756;9.400;2024-01-30T09:44:11;8.60;84.40
9057;DHT22;4563;54.756;9.400;2024-01-30T09:46:39;8.60;84.30
9057;DHT22;4563;54.756;9.400;2024-01-30T09:49:08;8.60;84.30
9057;DHT22;4563;54.756;9.400;2024-01-30T09:51:35;8.60;84.40
9057;DHT22;4563;54.756;9.400;2024-01-30T09:54:03;8.70;84.40
9057;DHT22;4563;54.756;9.400;2024-01-30T09:56:29;8.70;84.40
9057;DHT22;4563;54.756;9.400;2024-01-30T09:58:56;8.70;84.40
9057;DHT22;4563;54.756;9.400;2024-01-30T10:01:23;8.70;84.40
9057;DHT22;4563;54.756;9.400;2024-01-30T10:03:50;8.80;84.50
9057;DHT22;4563;54.756;9.400;2024-01-30T10:06:20;8.80;84.60
9057;DHT22;4563;54.756;9.400;2024-01-30T10:08:48;8.80;84.50
9057;DHT22;4563;54.756;9.400;2024-01-30T10:11:14;8.80;84.40
9057;DHT22;4563;54.756;9.400;2024-01-30T10:13:41;8.80;84.40
9057;DHT22;4563;54.756;9.400;2024-01-30T10:16:08;8.90;84.50
9057;DHT22;4563;54.756;9.400;2024-01-30T10:18:35;9.00;84.60
9057;DHT22;4563;54.756;9.400;2024-01-30T10:21:02;9.00;84.50
9057;DHT22;4563;54.756;9.400;2024-01-30T10:23:30;9.00;84.60
9057;DHT22;4563;54.756;9.400;2024-01-30T10:25:57;9.00;84.50
9057;DHT22;4563;54.756;9.400;2024-01-30T10:28:27;9.00;84.50
9057;DHT22;4563;54.756;9.400;2024-01-30T10:30:58;9.00;84.40
9057;DHT22;4563;54.756;9.400;2024-01-30T10:33:26;9.10;84.60
9057;DHT22;4563;54.756;9.400;2024-01-30T10:35:55;9.10;84.50
9057;DHT22;4563;54.756;9.400;2024-01-30T10:38:25;9.10;84.40
9057;DHT22;4563;54.756;9.400;2024-01-30T10:40:56;9.20;84.50
9057;DHT22;4563;54.756;9.400;2024-01-30T10:43:26;9.20;84.50
9057;DHT22;4563;54.756;9.400;2024-01-30T10:45:57;9.20;84.40
9057;DHT22;4563;54.756;9.400;2024-01-30T10:48:30;9.20;84.40
9057;DHT22;4563;54.756;9.400;2024-01-30T10:50:59;9.20;84.30
9057;DHT22;4563;54.756;9.400;2024-01-30T10:53:31;9.30;84.40
9057;DHT22;4563;54.756;9.400;2024-01-30T10:55:59;9.30;84.30
9057;DHT22;4563;54.756;9.400;2024-01-30T10:58:27;9.30;84.40
9057;DHT22;4563;54.756;9.400;2024-01-30T11:00:54;9.30;84.30
9057;DHT22;4563;54.756;9.400;2024-01-30T11:03:22;9.30;84.30
9057;DHT22;4563;54.756;9.400;2024-01-30T11:05:50;9.30;84.20
9057;DHT22;4563;54.756;9.400;2024-01-30T11:08:23;9.30;84.20
9057;DHT22;4563;54.756;9.400;2024-01-30T11:10:55;9.40;84.20
9057;DHT22;4563;54.756;9.400;2024-01-30T11:13:27;9.40;84.10
9057;DHT22;4563;54.756;9.400;2024-01-30T11:15:54;9.40;84.20
9057;DHT22;4563;54.756;9.400;2024-01-30T11:18:24;9.40;84.10
9057;DHT22;4563;54.756;9.400;2024-01-30T11:20:52;9.40;84.10
9057;DHT22;4563;54.756;9.400;2024-01-30T11:23:21;9.40;84.20
9057;DHT22;4563;54.756;9.400;2024-01-30T11:25:48;9.40;84.30
9057;DHT22;4563;54.756;9.400;2024-01-30T11:28:15;9.40;84.20
9057;DHT22;4563;54.756;9.400;2024-01-30T11:30:44;9.40;84.20
9057;DHT22;4563;54.756;9.400;2024-01-30T11:33:14;9.50;84.40
9057;DHT22;4563;54.756;9.400;2024-01-30T11:35:43;9.50;84.40
9057;DHT22;4563;54.756;9.400;2024-01-30T11:38:11;9.50;84.40
9057;DHT22;4563;54.756;9.400;2024-01-30T11:40:39;9.50;84.30
9057;DHT22;4563;54.756;9.400;2024-01-30T11:43:07;9.50;84.40
9057;DHT22;4563;54.756;9.400;2024-01-30T11:45:35;9.50;84.30
9057;DHT22;4563;54.756;9.400;2024-01-30T11:48:04;9.60;84.30
9057;DHT22;4563;54.756;9.400;2024-01-30T11:50:31;9.60;84.30
9057;DHT22;4563;54.756;9.400;2024-01-30T11:52:59;9.60;84.30
9057;DHT22;4563;54.756;9.400;2024-01-30T11:55:26;9.60;84.20
9057;DHT22;4563;54.756;9.400;2024-01-30T11:57:55;9.70;84.20
9057;DHT22;4563;54.756;9.400;2024-01-30T12:00:22;9.70;84.30
9057;DHT22;4563;54.756;9.400;2024-01-30T12:02:50;9.70;84.20
9057;DHT22;4563;54.756;9.400;2024-01-30T12:05:23;9.70;84.30
9057;DHT22;4563;54.756;9.400;2024-01-30T12:07:50;9.70;84.20
9057;DHT22;4563;54.756;9.400;2024-01-30T12:10:17;9.80;84.40
9057;DHT22;4563;54.756;9.400;2024-01-30T12:12:46;9.80;84.50
9057;DHT22;4563;54.756;9.400;2024-01-30T12:15:13;9.80;84.50
9057;DHT22;4563;54.756;9.400;2024-01-30T12:17:41;9.90;84.60
9057;DHT22;4563;54.756;9.400;2024-01-30T12:20:09;9.90;84.60
9057;DHT22;4563;54.756;9.400;2024-01-30T12:22:39;9.90;84.60
9057;DHT22;4563;54.756;9.400;2024-01-30T12:25:09;10.00;83.50
9057;DHT22;4563;54.756;9.400;2024-01-30T12:27:36;10.00;84.20
9057;DHT22;4563;54.756;9.400;2024-01-30T12:30:05;10.00;83.50
9057;DHT22;4563;54.756;9.400;2024-01-30T12:32:34;10.10;83.50
9057;DHT22;4563;54.756;9.400;2024-01-30T12:35:01;10.10;83.50
9057;DHT22;4563;54.756;9.400;2024-01-30T12:37:29;10.10;83.50
9057;DHT22;4563;54.756;9.400;2024-01-30T12:39:58;10.10;83.50
9057;DHT22;4563;54.756;9.400;2024-01-30T12:42:27;10.20;83.60
9057;DHT22;4563;54.756;9.400;2024-01-30T12:44:54;10.20;83.60
9057;DHT22;4563;54.756;9.400;2024-01-30T12:47:21;10.20;83.50
9057;DHT22;4563;54.756;9.400;2024-01-30T12:49:48;10.20;83.50
9057;DHT22;4563;54.756;9.400;2024-01-30T12:52:19;10.30;83.60
9057;DHT22;4563;54.756;9.400;2024-01-30T12:54:46;10.20;83.50
9057;DHT22;4563;54.756;9.400;2024-01-30T12:57:14;10.30;83.60
9057;DHT22;4563;54.756;9.400;2024-01-30T12:59:41;10.30;83.60
9057;DHT22;4563;54.756;9.400;2024-01-30T13:02:08;10.30;83.60
9057;DHT22;4563;54.756;9.400;2024-01-30T13:04:35;10.30;83.60
9057;DHT22;4563;54.756;9.400;2024-01-30T13:07:03;10.30;83.60
9057;DHT22;4563;54.756;9.400;2024-01-30T13:09:30;10.30;83.50
9057;DHT22;4563;54.756;9.400;2024-01-30T13:11:57;10.40;83.60
9057;DHT22;4563;54.756;9.400;2024-01-30T13:14:25;10.40;83.60
9057;DHT22;4563;54.756;9.400;2024-01-30T13:16:52;10.40;83.60
9057;DHT22;4563;54.756;9.400;2024-01-30T13:19:19;10.40;83.60
9057;DHT22;4563;54.756;9.400;2024-01-30T13:21:46;10.40;83.60
9057;DHT22;4563;54.756;9.400;2024-01-30T13:24:13;10.40;83.50
9057;DHT22;4563;54.756;9.400;2024-01-30T13:26:40;10.50;83.70
9057;DHT22;4563;54.756;9.400;2024-01-30T13:29:08;10.50;83.70
9057;DHT22;4563;54.756;9.400;2024-01-30T13:31:36;10.50;83.70
9057;DHT22;4563;54.756;9.400;2024-01-30T13:34:04;10.50;83.70
9057;DHT22;4563;54.756;9.400;2024-01-30T13:36:32;10.50;83.70
9057;DHT22;4563;54.756;9.400;2024-01-30T13:38:59;10.50;83.70
9057;DHT22;4563;54.756;9.400;2024-01-30T13:41:26;10.60;83.80
9057;DHT22;4563;54.756;9.400;2024-01-30T13:43:53;10.60;83.90
9057;DHT22;4563;54.756;9.400;2024-01-30T13:46:19;10.60;84.00
9057;DHT22;4563;54.756;9.400;2024-01-30T13:48:48;10.60;83.90
9057;DHT22;4563;54.756;9.400;2024-01-30T13:51:14;10.60;84.00
9057;DHT22;4563;54.756;9.400;2024-01-30T13:53:42;10.70;84.00
9057;DHT22;4563;54.756;9.400;2024-01-30T13:56:09;10.70;84.10
9057;DHT22;4563;54.756;9.400;2024-01-30T13:58:36;10.70;84.10
9057;DHT22;4563;54.756;9.400;2024-01-30T14:01:03;10.70;84.10
9057;DHT22;4563;54.756;9.400;2024-01-30T14:03:30;10.70;84.10
9057;DHT22;4563;54.756;9.400;2024-01-30T14:05:59;10.80;84.20
9057;DHT22;4563;54.756;9.400;2024-01-30T14:08:25;10.80;84.20
9057;DHT22;4563;54.756;9.400;2024-01-30T14:10:53;10.80;84.20
9057;DHT22;4563;54.756;9.400;2024-01-30T14:13:20;10.80;84.20
9057;DHT22;4563;54.756;9.400;2024-01-30T14:15:48;10.80;84.30
9057;DHT22;4563;54.756;9.400;2024-01-30T14:18:15;10.80;85.10
9057;DHT22;4563;54.756;9.400;2024-01-30T14:20:41;10.90;84.50
9057;DHT22;4563;54.756;9.400;2024-01-30T14:23:10;10.90;84.50
9057;DHT22;4563;54.756;9.400;2024-01-30T14:25:36;10.90;85.30
9057;DHT22;4563;54.756;9.400;2024-01-30T14:28:04;10.90;84.60
9057;DHT22;4563;54.756;9.400;2024-01-30T14:30:30;10.90;84.60
9057;DHT22;4563;54.756;9.400;2024-01-30T14:32:57;10.90;84.60
9057;DHT22;4563;54.756;9.400;2024-01-30T14:35:24;10.90;84.60
9057;DHT22;4563;54.756;9.400;2024-01-30T14:37:51;11.00;84.70
9057;DHT22;4563;54.756;9.400;2024-01-30T14:40:20;10.90;84.60
9057;DHT22;4563;54.756;9.400;2024-01-30T14:42:46;11.00;84.70
9057;DHT22;4563;54.756;9.400;2024-01-30T14:45:13;11.00;84.70
9057;DHT22;4563;54.756;9.400;2024-01-30T14:47:41;11.00;84.70
9057;DHT22;4563;54.756;9.400;2024-01-30T14:50:08;11.00;84.70
9057;DHT22;4563;54.756;9.400;2024-01-30T14:52:35;11.00;84.70
9057;DHT22;4563;54.756;9.400;2024-01-30T14:55:02;11.00;84.70
9057;DHT22;4563;54.756;9.400;2024-01-30T14:57:31;11.00;84.80
9057;DHT22;4563;54.756;9.400;2024-01-30T14:59:58;11.00;84.70
9057;DHT22;4563;54.756;9.400;2024-01-30T15:02:24;11.00;84.70
9057;DHT22;4563;54.756;9.400;2024-01-30T15:04:51;11.00;84.70
9057;DHT22;4563;54.756;9.400;2024-01-30T15:07:18;11.00;84.80
9057;DHT22;4563;54.756;9.400;2024-01-30T15:09:45;11.00;84.70
9057;DHT22;4563;54.756;9.400;2024-01-30T15:12:11;10.90;84.60
9057;DHT22;4563;54.756;9.400;2024-01-30T15:14:39;11.00;84.70
9057;DHT22;4563;54.756;9.400;2024-01-30T15:17:06;10.90;84.70
9057;DHT22;4563;54.756;9.400;2024-01-30T15:19:33;10.90;84.60
9057;DHT22;4563;54.756;9.400;2024-01-30T15:22:02;10.90;84.70
9057;DHT22;4563;54.756;9.400;2024-01-30T15:24:29;10.90;85.40
9057;DHT22;4563;54.756;9.400;2024-01-30T15:26:57;10.90;84.60
9057;DHT22;4563;54.756;9.400;2024-01-30T15:29:24;10.90;84.60
9057;DHT22;4563;54.756;9.400;2024-01-30T15:31:52;10.90;84.60
9057;DHT22;4563;54.756;9.400;2024-01-30T15:34:19;10.90;84.60
9057;DHT22;4563;54.756;9.400;2024-01-30T15:36:46;10.90;84.60
9057;DHT22;4563;54.756;9.400;2024-01-30T15:39:13;10.90;84.70
9057;DHT22;4563;54.756;9.400;2024-01-30T15:41:40;10.90;84.70
9057;DHT22;4563;54.756;9.400;2024-01-30T15:44:07;10.90;84.60
9057;DHT22;4563;54.756;9.400;2024-01-30T15:46:34;10.90;84.60
9057;DHT22;4563;54.756;9.400;2024-01-30T15:49:02;10.90;84.60
9057;DHT22;4563;54.756;9.400;2024-01-30T15:51:29;10.90;84.60
9057;DHT22;4563;54.756;9.400;2024-01-30T15:53:56;10.90;84.60
9057;DHT22;4563;54.756;9.400;2024-01-30T15:56:23;10.80;84.50
9057;DHT22;4563;54.756;9.400;2024-01-30T15:58:51;10.80;84.50
9057;DHT22;4563;54.756;9.400;2024-01-30T16:01:18;10.80;84.50
9057;DHT22;4563;54.756;9.400;2024-01-30T16:03:44;10.80;84.50
9057;DHT22;4563;54.756;9.400;2024-01-30T16:06:13;10.80;84.50
9057;DHT22;4563;54.756;9.400;2024-01-30T16:08:40;10.80;84.50
9057;DHT22;4563;54.756;9.400;2024-01-30T16:11:07;10.70;84.40
9057;DHT22;4563;54.756;9.400;2024-01-30T16:13:34;10.70;84.30
9057;DHT22;4563;54.756;9.400;2024-01-30T16:16:03;10.80;84.40